Create Custom Reports and Graphics: Custom Report

Stanford Met Tower

Current Conditions

7/30/21 10:30 AM (-07:00)
Updated Every 15 Minutes
Temp 69.5 °F   3.6
RH 74 %   7
Dew Pt 60.7 °F   0.8
Wind Dir N | 8 °
Wind Spd 2.8 mph   0.1
Wind Gust 5.7 mph   0.3
NowCast AQI Value 38 AQI   14
NowCast AQI Status Good
Daily Min Temp 57.7 °F   2.8
Daily Max Temp 70.9 °F   3.0
Daily Max Wind 8.2 mph   0.4
Yesterday’s Min Temp 60.5 °F
Yesterday's Max Temp 80.9 °F
Yesterday's Max Wind 12.8 mph
Seasonal Rainfall 0.02 In

Last 48 Hours

Stanford Met Tower

Hourly Data | America/Los_Angeles
as of 7/30/21 10:50 AM PDT
Date & Time Temp (°F) RH (%) Dew Pt (°F) Wind Dir (°) Wind Spd (mph) Wind Gust (mph) Solar Rad (W/m2) Pressure (mb) (mb) NowCast AQI Value (AQI) NowCast AQI Status Latest Rain (In) Daily Rain (In) Daily Min Temp (°F) Daily Max Temp (°F)
7/30/21 - 1000 66.6 79 60.0 NNE | 32 2.7 7.2 536 1,015.7 38 Good 0.00 0.00 57.7 68.6
7/30/21 - 0900 63.2 87 59.3 ENE | 63 1.4 6.5 171 1,015.7 43 Good 0.00 0.00 57.7 65.2
7/30/21 - 0800 61.6 91 58.9 NNE | 33 2.9 5.7 60 1,015.4 44 Good 0.00 0.00 57.7 62.8
7/30/21 - 0700 61.1 91 58.5 N | 356 1.1 4.7 5 1,015.0 40 Good 0.00 0.00 57.7 62.0
7/30/21 - 0600 60.2 92 57.9 N | 11 2.2 4.0 0 1,014.7 32 Good 0.00 0.00 57.7 61.7
7/30/21 - 0500 59.0 95 57.5 NE | 41 1.3 3.7 0 1,014.9 30 Good 0.00 0.00 57.7 61.7
7/30/21 - 0400 58.3 94 56.6 N | 351 1.1 2.7 0 1,014.8 29 Good 0.00 0.00 57.7 61.7
7/30/21 - 0300 59.1 93 57.0 N | 4 0.8 2.2 0 1,014.5 30 Good 0.00 0.00 58.3 61.7
7/30/21 - 0200 60.6 90 57.7 NNE | 22 1.2 2.3 0 1,014.8 31 Good 0.00 0.00 59.7 61.7
7/30/21 - 0100 62.2 86 58.1 NNE | 23 2.2 5.7 0 1,015.2 31 Good 0.00 0.00 60.5 80.9
7/30/21 - 0000 62.8 86 58.6 NNE | 25 2.2 5.0 0 1,015.0 31 Good 0.00 0.00 60.5 80.9
7/29/21 - 2300 63.6 87 59.6 NNW | 345 2.1 4.0 0 1,014.9 31 Good 0.00 0.00 60.5 80.9
7/29/21 - 2200 65.1 82 59.6 N | 5 2.6 5.6 0 1,014.6 27 Good 0.00 0.00 60.5 80.9
7/29/21 - 2100 68.7 74 60.0 N | 11 3.6 6.7 4 1,014.0 22 Good 0.00 0.00 60.5 80.9
7/29/21 - 2000 72.9 66 60.8 NNE | 29 3.5 5.8 103 1,013.4 21 Good 0.00 0.00 60.5 80.9
7/29/21 - 1900 74.1 63 60.9 NNE | 33 3.8 6.9 202 1,013.2 19 Good 0.00 0.00 60.5 80.9
7/29/21 - 1800 75.5 61 61.3 N | 10 5.0 9.1 237 1,013.0 17 Good 0.00 0.00 60.5 80.9
7/29/21 - 1700 78.4 56 61.6 N | 7 5.2 8.8 399 1,012.6 15 Good 0.00 0.00 60.5 80.9
7/29/21 - 1600 79.4 55 61.8 N | 5 5.6 10.5 766 1,012.5 16 Good 0.00 0.00 60.5 80.6
7/29/21 - 1500 78.5 58 62.5 NNE | 19 6.7 12.8 899 1,012.9 18 Good 0.00 0.00 60.5 79.6
7/29/21 - 1400 77.4 61 62.8 N | 360 4.8 10.2 903 1,013.6 23 Good 0.00 0.00 60.5 79.0
7/29/21 - 1300 73.9 68 62.5 N | 1 5.0 9.8 748 1,014.6 25 Good 0.00 0.00 60.5 76.0
7/29/21 - 1200 72.4 70 62.2 N | 7 5.6 10.6 535 1,015.0 24 Good 0.00 0.00 60.5 73.9
7/29/21 - 1100 72.7 68 61.6 NNE | 17 3.8 8.6 638 1,015.2 22 Good 0.00 0.00 60.5 73.9
7/29/21 - 1000 68.9 74 60.5 NNE | 25 1.7 6.4 547 1,016.2 24 Good 0.00 0.00 60.5 71.6
7/29/21 - 0900 64.8 84 59.9 ESE | 105 1.4 5.6 315 1,017.0 28 Good 0.00 0.00 60.5 67.0
7/29/21 - 0800 63.1 87 59.2 ESE | 103 1.6 4.9 57 1,017.2 28 Good 0.00 0.00 60.5 64.2
7/29/21 - 0700 62.0 89 58.8 NNE | 30 0.9 3.4 18 1,017.1 28 Good 0.00 0.00 60.5 62.9
7/29/21 - 0600 61.7 90 58.7 N | 10 1.4 3.6 0 1,017.1 26 Good 0.00 0.00 60.5 62.2
7/29/21 - 0500 61.5 90 58.4 N | 358 1.6 3.9 0 1,017.0 24 Good 0.00 0.00 60.5 62.2
7/29/21 - 0400 61.2 90 58.2 N | 2 1.8 3.7 0 1,017.1 20 Good 0.00 0.00 60.5 62.2
7/29/21 - 0300 60.7 90 58.0 NNE | 13 1.8 4.7 0 1,017.4 19 Good 0.00 0.00 60.5 62.2
7/29/21 - 0200 61.3 89 58.0 NNE | 29 2.2 5.9 0 1,017.6 17 Good 0.00 0.00 60.6 62.2
7/29/21 - 0100 62.0 88 58.5 NNE | 19 2.4 4.4 0 1,017.9 16 Good 0.00 0.00 55.7 81.4
7/29/21 - 0000 62.8 87 58.8 N | 8 2.5 4.7 0 1,017.9 15 Good 0.00 0.00 55.7 81.4
7/28/21 - 2300 63.4 85 58.8 NNE | 25 2.8 5.3 0 1,018.0 15 Good 0.00 0.00 55.7 81.4
7/28/21 - 2200 64.6 82 59.0 NNE | 25 3.3 7.6 0 1,017.7 15 Good 0.00 0.00 55.7 81.4
7/28/21 - 2100 68.0 76 60.4 ENE | 58 3.9 6.6 6 1,016.9 16 Good 0.00 0.00 55.7 81.4
7/28/21 - 2000 70.4 71 60.4 ENE | 72 3.7 7.6 93 1,016.4 16 Good 0.00 0.00 55.7 81.4
7/28/21 - 1900 73.4 64 60.4 NE | 46 5.7 9.4 161 1,015.8 16 Good 0.00 0.00 55.7 81.4
7/28/21 - 1800 76.8 58 61.1 NE | 40 6.0 10.9 471 1,015.5 16 Good 0.00 0.00 55.7 81.4
7/28/21 - 1700 78.0 57 61.3 NNE | 24 6.4 12.2 589 1,015.5 15 Good 0.00 0.00 55.7 81.4
7/28/21 - 1600 79.2 54 60.9 N | 10 6.6 12.0 760 1,015.3 13 Good 0.00 0.00 55.7 81.4
7/28/21 - 1500 78.0 57 61.4 N | 1 5.6 11.1 791 1,016.0 13 Good 0.00 0.00 55.7 81.4
7/28/21 - 1400 76.5 61 61.9 N | 3 5.9 12.5 704 1,016.5 13 Good 0.00 0.00 55.7 78.2
7/28/21 - 1300 77.2 60 62.2 N | 1 4.7 9.8 837 1,017.0 13 Good 0.00 0.00 55.7 78.2
7/28/21 - 1200 75.4 60 60.6 NNE | 21 2.6 6.8 838 1,017.7 13 Good 0.00 0.00 55.7 78.0
7/28/21 - 1100 69.5 69 58.9 NE | 50 0.8 3.4 641 1,018.8 14 Good 0.00 0.00 55.7 73.4
7/28/21 - 1000 65.6 77 58.2 ENE | 70 3.3 8.6 276 1,019.5 14 Good 0.00 0.00 55.7 67.3
Max 79.4 95 62.8 - 6.7 12.8 903 1,019.5 44 - 0.00 0.00 60.6 81.4
Avg 68.0 76 59.8 - 3.2 6.8 272 1,015.7 23 - 0.00 - - -
Min 58.3 54 56.6 - 0.8 2.2 0 1,012.5 13 - 0.00 0.00 55.7 61.7
Total - - - - - - - - - - 0.00 - - -

Last 30 Days

Stanford Met Tower

Daily Data | America/Los_Angeles
as of 7/30/21 10:50 AM PDT
Date Daily Max Temp (°F) Time of Max Temp Daily Min Temp (°F) Time of Min Temp Daily Rain (In) Monthly Rain (In) Seasonal Rainfall (In) Daily Max Wind (mph) Time of Max Wind Max Wind Dir (°) Dew Pt (°F) Max RH (%) Min RH (%) Daily ETo (in) Daily Solar Rad (Cal/cm2) PM2.5 Daily Max (ug/m3) Time of Max PM2.5 Max Pressure (mb) (mb) Time of Max Press Min pressure (mb) (mb) Time of Min Press Max Temp Inversion (°F) Time of Max Temp Inversion Min Temp Inversion (°F) Time of Min Temp Inversion HDDs (°F) CDDs (°F) GDDs (DL) Seas GDDs (DL) Chilling <=45F (hrs) Daily Max Rain Intensity (In/Hr) Time of Max Rain Intensity Bat Volt Min Day (V)
7/29/21 80.9 1606 60.5 0214 0.00 0.02 0.02 12.8 1436 NE | 42 60.1 91 52 0.171 548 8.8 2228 1,018.0 0102 1,012.0 1529 0.9 2349 -10.1 1338 1.3 4.7 18.4 1,395 0.0 - - 12.2
7/28/21 81.4 1459 55.7 0540 0.00 0.02 0.02 12.5 1312 NNE | 29 58.7 94 49 0.176 572 5.8 0543 1,020.0 0703 1,015.0 1514 3.0 0439 -10.2 1243 2.3 4.5 17.2 1,377 0.0 - - 12.2
7/27/21 86.7 1707 59.1 0200 0.00 0.02 0.02 13.8 1515 NE | 38 58.0 91 32 0.208 628 6.7 0613 1,019.0 0021 1,014.0 1726 1.0 0303 -9.7 1332 1.6 7.0 20.4 1,359 0.0 - - 12.1
7/26/21 82.7 1646 57.4 0255 0.00 0.02 0.02 11.8 1717 NE | 49 57.5 94 37 0.149 485 9.8 0858 1,017.0 2330 1,013.0 1646 1.7 0131 -11.1 1341 2.5 3.1 15.7 1,339 0.0 - - 12.2
7/25/21 76.7 1238 56.6 0117 0.00 0.02 0.02 14.7 1400 N | 11 57.5 94 55 0.182 614 9.2 0728 1,018.0 0849 1,012.0 1525 2.7 0111 -10.2 1228 2.6 3.0 15.4 1,323 0.0 - - 12.1
7/24/21 78.1 1448 54.8 0224 0.01 0.02 0.02 14.1 1724 NNE | 13 56.9 96 52 0.192 657 14.2 0643 1,019.0 0805 1,014.0 1548 2.7 2200 -10.5 1322 3.0 3.2 15.2 1,308 0.0 0.01 2143 12.2
7/23/21 79.8 1502 50.4 0529 0.00 0.01 0.01 13.6 1715 NNE | 27 55.9 94 48 0.202 673 14.0 0813 1,019.0 0848 1,015.0 1505 2.7 0058 -10.4 1423 4.4 4.1 14.6 1,293 0.0 - - 12.2
7/22/21 79.0 1625 51.9 0622 0.00 0.01 0.01 14.4 1709 NNE | 13 54.2 92 41 0.201 694 14.3 0758 1,019.0 0037 1,015.0 1615 3.3 0034 -10.7 1455 4.0 3.0 14.1 1,278 0.0 - - 12.2
7/21/21 80.9 1614 50.6 0537 0.00 0.01 0.01 14.3 1709 NNE | 33 53.7 93 39 0.206 688 13.5 1213 1,018.0 0725 1,013.0 1621 2.4 0258 -10.8 1357 4.1 4.3 15.2 1,264 0.0 - - 12.2
7/20/21 78.3 1606 55.2 0309 0.00 0.01 0.01 15.8 1830 N | 355 55.7 94 42 0.194 674 11.7 0758 1,021.0 0807 1,016.0 1838 3.8 2155 -10.7 1328 3.1 3.2 15.1 1,249 0.0 - - 12.2
7/19/21 79.8 1309 56.5 0624 0.00 0.01 0.01 13.0 1354 NE | 35 57.5 94 50 0.189 610 11.3 1428 1,020.0 2233 1,016.0 1344 2.2 0329 -10.5 1354 2.6 4.8 17.2 1,234 0.0 - - 12.1
7/18/21 82.9 1542 51.6 0618 0.00 0.01 0.01 13.5 1614 N | 5 57.2 96 47 0.205 671 9.8 0728 1,018.0 0003 1,014.0 1534 3.0 0227 -10.4 1329 3.6 4.7 16.1 1,216 0.0 - - 12.2
7/17/21 79.4 1552 52.2 0446 0.00 0.01 0.01 13.6 1326 NNE | 32 56.5 96 50 0.202 682 8.5 2313 1,017.0 2333 1,013.0 1611 3.1 0031 -11.0 1431 3.8 4.2 15.4 1,200 0.0 - - 12.2
7/16/21 74.6 1638 55.6 0056 0.00 0.01 0.01 15.3 1414 NE | 42 54.5 92 54 0.194 683 9.0 0613 1,017.0 0108 1,013.0 1819 2.6 0039 -10.8 1223 3.6 2.6 14.0 1,185 0.0 - - 12.2
7/15/21 74.9 1445 54.3 2327 0.00 0.01 0.01 14.5 1315 NE | 48 53.5 88 51 0.194 689 6.2 1013 1,019.0 0822 1,015.0 1837 1.0 0254 -10.5 1457 3.8 2.1 13.3 1,171 0.0 - - 12.2
7/14/21 79.3 1632 52.9 0527 0.00 0.01 0.01 18.6 1925 SSW | 211 53.6 90 43 0.201 686 7.3 0128 1,018.0 0048 1,013.0 1546 1.9 0530 -10.6 1202 3.9 3.0 14.2 1,158 0.0 - - 12.2
7/13/21 76.8 1500 56.9 0649 0.00 0.01 0.01 21.1 1732 SSW | 197 53.2 86 45 0.193 668 8.3 0213 1,016.0 2222 1,012.0 1601 0.0 0019 -10.9 1239 3.8 1.8 13.0 1,143 0.0 - - 12.2
7/12/21 76.1 1620 56.5 0211 0.00 0.01 0.01 13.0 1341 NE | 50 55.0 91 49 0.181 642 12.7 0113 1,016.0 0902 1,012.0 1621 1.4 0146 -10.6 1336 3.1 2.0 13.8 1,130 0.0 - - 12.2
7/11/21 74.2 1524 54.8 0606 0.00 0.01 0.01 13.9 1435 NE | 50 55.4 94 56 0.192 684 14.5 2113 1,016.0 0752 1,012.0 1557 2.6 0602 -11.4 1419 3.6 2.3 13.7 1,117 0.0 - - 12.2
7/10/21 81.8 1602 56.2 0608 0.00 0.01 0.01 12.0 1419 NNE | 21 56.9 93 42 0.207 677 12.0 2313 1,017.0 0646 1,012.0 1535 1.5 2138 -10.6 1532 2.5 5.1 17.7 1,103 0.0 - - 12.2
7/9/21 84.7 1404 56.5 0616 0.00 0.01 0.01 12.7 1445 NNE | 22 57.5 89 40 0.217 663 11.5 0728 1,017.0 2357 1,012.0 1559 3.5 0235 -10.1 1329 2.1 7.4 20.3 1,085 0.0 - - 12.2
7/8/21 83.6 1440 55.2 0104 0.00 0.01 0.01 11.2 1620 N | 10 56.6 92 41 0.215 698 10.5 2228 1,014.0 0102 1,009.0 1553 3.8 2323 -11.0 1408 2.7 5.8 18.1 1,065 0.0 - - 12.1
7/7/21 74.4 1443 48.7 0554 0.00 0.01 0.01 16.3 1158 ENE | 63 52.4 93 49 0.199 710 5.5 0658 1,019.0 0101 1,012.0 1556 2.8 0102 -11.2 1336 5.6 2.0 11.4 1,047 0.0 - - 12.2
7/6/21 76.7 1620 52.9 0059 0.00 0.01 0.01 13.2 1534 NE | 46 54.0 87 40 0.201 699 5.7 2358 1,020.0 0835 1,016.0 1611 2.6 0057 -11.1 1401 2.9 2.5 14.6 1,035 0.0 - - 12.2
7/5/21 77.0 1622 59.0 2121 0.00 0.01 0.01 14.4 1426 N | 1 56.5 87 49 0.188 658 50.8 0143 1,019.0 2257 1,015.0 1621 1.2 2118 -10.8 1348 2.2 2.5 15.3 1,021 0.0 - - 12.2
7/4/21 76.4 1530 57.9 2303 0.00 0.01 0.01 15.3 1328 N | 9 56.4 90 52 0.201 700 15.7 2313 1,018.0 0748 1,015.0 1536 1.4 2301 -10.5 1245 2.4 2.9 15.4 1,006 0.0 - - 12.2
7/3/21 75.2 1637 60.0 2214 0.00 0.01 0.01 14.8 1320 NNE | 14 57.4 87 56 0.171 596 6.3 0358 1,017.0 2347 1,014.0 1617 1.9 2213 -10.5 1253 1.8 2.3 15.4 990 0.0 - - 12.2
7/2/21 77.6 1513 55.0 0448 0.00 0.01 0.01 16.9 1433 NE | 39 56.5 90 52 0.200 684 5.0 0913 1,016.0 0009 1,012.0 1545 1.2 0430 -10.0 1152 2.7 3.5 15.8 975 0.0 - - 12.2
7/1/21 78.6 1537 57.8 0037 0.01 0.01 0.01 18.5 1707 SSW | 192 56.5 89 52 0.205 682 4.5 2228 1,016.0 0832 1,012.0 1531 1.6 2244 -11.2 1238 2.4 3.7 16.3 959 0.0 0.01 2051 12.1
6/30/21 79.2 1507 55.1 0607 0.00 0.02 7.40 17.0 1413 S | 188 56.6 94 47 0.206 679 28.7 0658 1,015.0 2235 1,012.0 1525 2.5 0534 -10.7 1333 2.6 4.0 16.4 943 0.0 - - 12.2
Max 86.7 - 60.5 - 0.01 0.02 - 21.1 - - 60.1 96 56 0.217 710 50.8 - 1,021.0 - 1,016.0 - 3.8 - -9.7 - 5.6 7.4 20.4 - 0.0 0.01 - 12.2
Avg - - - - - 0.01 - - - - 56.1 - - - - - - 1,017.8 - 1,013.3 - - - - - - - 15.6 - 0.0 - - -
Min 74.2 - 48.7 - 0.00 0.01 - 11.2 - - 52.4 86 32 0.149 485 4.5 - 1,014.0 - 1,009.0 - 0.0 - -11.4 - 1.3 1.8 11.4 - 0.0 0.01 - 12.1
Total - - - - - - - - - - - - - - - - - - - - - - - - - - - 468.9 - 0.0 - - -
Calm: 0.0%
Calm: 0.0%

Climate Summary

Stanford Met Tower

Current Year | Showing 1/1/21 - 7/29/21
as of 7/30/21 10:50 AM PDT
Temperature (°F) Precip (in) Days
Month Days Avg Max Avg Min Max Max Min Min Total Daily Min Temp < 32 Daily Min Temp < 40 Daily Max Temp > 90 Daily Max Temp > 100 Daily Rain > 0.01 Daily Rain > 0.1
Jan 2021 31 61.5 39.3 77.7 31 3.78 2 16 0 0 7 7
Feb 2021 28 64.3 38.5 77.4 32.8 0.57 0 19 0 0 5 2
Mar 2021 31 64.3 36.9 82.6 32.3 1.19 0 26 0 0 6 6
Apr 2021 30 69.1 40 84.5 35.2 0 0 14 0 0 0 0
May 2021 31 74.5 45.7 87.4 38.8 0 0 1 0 0 0 0
Jun 2021 30 78.2 52.3 101.4 42.2 0.02 0 0 3 1 0 0
Jul 2021 29 78.9 55.3 86.7 48.7 0.02 0 0 0 0 0 0
Total 210 - - - - 5.58 2 76 3 1 18 15
Average 30 70.1 44 - - 0.8 0.3 10.9 0.4 0.1 2.6 2.1
Maximum 31 78.9 55.3 101.4 - 3.78 2 26 3 1 7 7
Minimum 28 61.5 36.9 - 31 0 0 0 0 0 0 0

Climate Summary

Stanford Met Tower

Last Year | Showing 1/1/20 - 12/31/20
as of 7/30/21 10:50 AM PDT
Temperature (°F) Precip (in) Days
Month Days Avg Max Avg Min Max Max Min Min Total Daily Min Temp < 32 Daily Min Temp < 40 Daily Max Temp > 90 Daily Max Temp > 100 Daily Rain > 0.01 Daily Rain > 0.1
Jan 2020 31 60.2 38.4 84.2 32.1 0.94 0 21 0 0 5 1
Feb 2020 29 66.4 37.1 77.7 29.2 0 3 24 0 0 0 0
Mar 2020 31 63 41.7 78.5 33.1 1.63 0 10 0 0 10 5
Apr 2020 30 69.6 44.4 85.5 34.1 0.94 0 6 0 0 3 3
May 2020 31 77.2 48.2 96.7 37.8 0.21 0 1 4 0 2 1
Jun 2020 30 79.7 52.9 95.6 44.5 0 0 0 5 0 0 0
Jul 2020 31 80.3 54.1 93.1 47.9 0 0 0 1 0 0 0
Aug 2020 31 83.6 57.8 101.6 51 0.13 0 0 7 1 1 1
Sep 2020 30 82.5 54.8 107.5 50.1 0.02 0 0 5 2 1 0
Oct 2020 31 81.4 49 95.1 39.7 0 0 2 7 0 0 0
Nov 2020 30 65.9 38.1 80.1 29.5 0.44 5 17 0 0 4 2
Dec 2020 31 61.7 36.1 74.5 29.5 1.25 3 27 0 0 6 3
Total 366 - - - - 5.56 11 108 29 3 32 16
Average 30.5 72.6 46.1 - - 0.46 0.9 9 2.4 0.2 2.7 1.3
Maximum 31 83.6 57.8 107.5 - 1.63 5 27 7 2 10 5
Minimum 29 60.2 36.1 - 29.2 0 0 0 0 0 0 0

Climate Summary 2018

Stanford Met Tower

1/1/2018 - 12/31/2018 | Showing 1/1/18 - 12/31/18
as of 7/30/21 10:50 AM PDT
Temperature (°F) Precip (in) Days
Month Days Avg Max Avg Min Max Max Min Min Total Daily Min Temp < 32 Daily Min Temp < 40 Daily Max Temp > 90 Daily Max Temp > 100 Daily Rain > 0.01 Daily Rain > 0.1
Jan 2018 31 64.1 41.9 74 33.4 3.42 0 13 0 0 9 5
Feb 2018 28 69.4 36.9 83.9 26.6 0.33 6 17 0 0 2 1
Mar 2018 31 68.7 41.1 87 32.2 3.53 0 14 0 0 13 10
Apr 2018 30 73.2 43.4 85.7 36 1.38 0 6 0 0 7 3
May 2018 31 75.3 47.2 95.5 40.8 0 0 0 1 0 0 0
Jun 2018 30 84.1 49.6 101.9 42.5 0 0 0 8 1 0 0
Jul 2018 31 85.4 55.9 96.9 51.5 0.02 0 0 6 0 0 0
Aug 2018 31 84.4 53.5 94.5 47.9 0 0 0 7 0 0 0
Sep 2018 28 83.2 48.8 95.7 42.6 0 0 0 3 0 0 0
Oct 2018 31 79.9 46.7 88.1 39.6 0.05 0 1 0 0 2 0
Nov 2018 30 70.8 40.8 86.5 31.5 1.95 1 15 0 0 6 4
Dec 2018 31 61.7 39.4 67.1 31.1 1.44 1 20 0 0 7 5
Total 363 - - - - 12.12 8 86 25 1 46 28
Average 30.2 75 45.4 - - 1.01 0.7 7.2 2.1 0.1 3.8 2.3
Maximum 31 85.4 55.9 101.9 - 3.53 6 20 8 1 13 10
Minimum 28 61.7 36.9 - 26.6 0 0 0 0 0 0 0

Climate Summary 2017

Stanford Met Tower

1/1/2017 - 12/31/2017 | Showing 1/1/17 - 12/31/17
as of 7/30/21 10:50 AM PDT
Temperature (°F) Precip (in) Days
Month Days Avg Max Avg Min Max Max Min Min Total Daily Min Temp < 32 Daily Min Temp < 40 Daily Max Temp > 90 Daily Max Temp > 100 Daily Rain > 0.01 Daily Rain > 0.1
Jan 2017 31 59.2 38.6 67.9 27.2 10.05 5 17 0 0 17 13
Feb 2017 28 63.5 44.2 72.8 31.9 8.52 1 10 0 0 14 12
Mar 2017 31 71.7 43.2 84.4 33 2.7 0 7 0 0 8 7
Apr 2017 30 73.7 44.7 86.2 36.3 2.08 0 5 0 0 9 6
May 2017 31 79.6 48.3 96 41 0.01 0 0 6 0 0 0
Jun 2017 30 84.1 52.1 106.2 42.7 0.04 0 0 7 1 1 0
Jul 2017 31 88.3 53.9 103.6 47.6 0.01 0 0 8 3 0 0
Aug 2017 31 85 56.6 98.6 50.5 0 0 0 7 0 0 0
Sep 2017 30 87.4 54.8 110.8 43.7 0.06 0 0 10 2 1 0
Oct 2017 31 81.7 45.1 95.5 38.6 0.13 0 1 4 0 2 0
Nov 2017 30 68.5 44.8 75.4 35.9 2.67 0 6 0 0 8 4
Dec 2017 31 64.4 33.9 72.8 27.9 0.1 5 31 0 0 2 0
Total 365 - - - - 26.37 11 77 42 6 62 42
Average 30.4 75.6 46.7 - - 2.2 0.9 6.4 3.5 0.5 5.2 3.5
Maximum 31 88.3 56.6 110.8 - 10.05 5 31 10 3 17 13
Minimum 28 59.2 33.9 - 27.2 0 0 0 0 0 0 0